createdAt,value
2019-06-26T00:01:13.729Z,86.42
2019-06-26T00:03:44.151Z,86.20
2019-06-26T00:06:14.689Z,86.69
2019-06-26T00:08:45.207Z,87.07
2019-06-26T00:11:18.444Z,86.81
2019-06-26T00:13:48.800Z,86.84
2019-06-26T00:16:19.283Z,87.71
2019-06-26T00:18:49.724Z,88.31
2019-06-26T00:21:22.065Z,88.57
2019-06-26T00:23:52.480Z,88.00
2019-06-26T00:26:22.956Z,88.10
2019-06-26T00:28:59.175Z,88.22
2019-06-26T00:31:29.784Z,88.47
2019-06-26T00:34:00.643Z,87.97
2019-06-26T00:36:32.300Z,87.93
2019-06-26T00:39:03.587Z,88.07
2019-06-26T00:41:34.177Z,88.35
2019-06-26T00:44:04.615Z,88.28
2019-06-26T00:46:35.219Z,88.50
2019-06-26T00:49:05.890Z,88.56
2019-06-26T00:51:36.296Z,88.91
2019-06-26T00:54:06.876Z,88.92
2019-06-26T00:56:37.495Z,88.84
2019-06-26T00:59:07.957Z,88.46
2019-06-26T01:01:38.589Z,88.27
2019-06-26T01:04:13.907Z,88.62
2019-06-26T01:06:44.454Z,88.20
2019-06-26T01:09:16.368Z,87.92
2019-06-26T01:11:46.877Z,87.76
2019-06-26T01:14:19.445Z,87.62
2019-06-26T01:16:49.484Z,87.60
2019-06-26T01:19:20.082Z,87.15
2019-06-26T01:21:50.878Z,87.11
2019-06-26T01:24:21.425Z,86.98
2019-06-26T01:26:51.991Z,87.15
2019-06-26T01:29:22.587Z,87.42
2019-06-26T01:31:53.064Z,86.93
2019-06-26T01:34:23.578Z,87.29
2019-06-26T01:36:54.005Z,87.03
2019-06-26T01:39:24.479Z,86.85
2019-06-26T01:41:55.050Z,87.03
2019-06-26T01:44:25.526Z,87.16
2019-06-26T01:46:56.163Z,87.53
2019-06-26T01:49:26.724Z,87.38
2019-06-26T01:51:57.169Z,87.17
2019-06-26T01:54:27.680Z,87.12
2019-06-26T01:56:58.199Z,87.85
2019-06-26T01:59:28.525Z,88.04
2019-06-26T02:02:17.963Z,86.78
2019-06-26T02:04:48.499Z,86.83
2019-06-26T02:07:19.014Z,86.92
2019-06-26T02:09:49.567Z,87.01
2019-06-26T02:12:19.987Z,86.08
2019-06-26T02:14:50.458Z,86.25
2019-06-26T02:17:20.890Z,87.16
2019-06-26T02:19:51.309Z,88.41
2019-06-26T02:22:21.748Z,89.29
2019-06-26T02:24:52.265Z,89.75
2019-06-26T02:27:22.788Z,89.45
2019-06-26T02:29:53.234Z,89.31
2019-06-26T02:32:23.691Z,88.59
2019-06-26T02:34:54.158Z,89.30
2019-06-26T02:37:24.597Z,90.06
2019-06-26T02:39:55.063Z,89.32
2019-06-26T02:42:25.535Z,88.88
2019-06-26T02:44:55.849Z,88.30
2019-06-26T02:47:26.327Z,88.45
2019-06-26T02:49:56.746Z,88.05
2019-06-26T02:52:27.167Z,88.23
2019-06-26T02:54:57.620Z,88.60
2019-06-26T02:57:28.077Z,88.97
2019-06-26T02:59:58.496Z,88.68
2019-06-26T03:02:28.968Z,89.45
2019-06-26T03:04:59.440Z,89.43
2019-06-26T03:07:29.832Z,90.27
2019-06-26T03:10:00.275Z,89.56
2019-06-26T03:12:30.704Z,89.30
2019-06-26T03:15:08.947Z,89.32
2019-06-26T03:17:33.334Z,89.32
2019-06-26T03:20:03.911Z,88.20
2019-06-26T03:22:34.478Z,88.33
2019-06-26T03:25:05.296Z,88.72
2019-06-26T03:27:35.830Z,88.64
2019-06-26T03:30:07.005Z,88.67
2019-06-26T03:32:37.474Z,88.54
2019-06-26T03:35:08.684Z,88.64
2019-06-26T03:37:39.154Z,88.74
2019-06-26T03:40:11.118Z,89.31
2019-06-26T03:42:41.625Z,88.92
2019-06-26T03:45:25.046Z,88.37
2019-06-26T03:47:45.981Z,88.44
2019-06-26T03:50:17.401Z,87.72
2019-06-26T03:52:47.848Z,87.34
2019-06-26T03:55:18.523Z,87.35
2019-06-26T03:57:48.969Z,87.79
2019-06-26T04:00:30.767Z,87.85
2019-06-26T04:03:01.154Z,87.44
2019-06-26T04:05:31.589Z,87.39
2019-06-26T04:08:02.024Z,87.87
2019-06-26T04:10:32.413Z,88.17
2019-06-26T04:13:02.747Z,88.70
2019-06-26T04:15:42.034Z,88.22
2019-06-26T04:18:05.449Z,87.66
2019-06-26T04:20:35.942Z,87.11
2019-06-26T04:23:06.386Z,87.57
2019-06-26T04:25:38.301Z,87.09
2019-06-26T04:28:08.944Z,86.62
2019-06-26T04:30:39.626Z,86.20
2019-06-26T04:33:10.154Z,86.90
2019-06-26T04:35:40.568Z,87.48
2019-06-26T04:38:11.001Z,87.72
2019-06-26T04:40:41.457Z,87.52
2019-06-26T04:43:11.863Z,87.84
2019-06-26T04:45:57.262Z,87.85
2019-06-26T04:48:14.598Z,88.12
2019-06-26T04:50:44.969Z,88.11
2019-06-26T04:53:15.503Z,88.20
2019-06-26T04:55:45.973Z,88.09
2019-06-26T04:58:16.370Z,88.31
2019-06-26T05:00:46.756Z,87.92
2019-06-26T05:03:17.438Z,87.93
2019-06-26T05:05:47.881Z,87.83
2019-06-26T05:08:18.335Z,87.40
2019-06-26T05:10:48.774Z,87.41
2019-06-26T05:13:19.231Z,87.20
2019-06-26T05:15:49.614Z,87.02
2019-06-26T05:18:20.054Z,85.48
2019-06-26T05:20:50.679Z,85.20
2019-06-26T05:23:21.098Z,84.00
2019-06-26T05:25:51.460Z,83.28
2019-06-26T05:28:21.977Z,82.59
2019-06-26T05:30:52.494Z,82.13
2019-06-26T05:33:23.025Z,82.12
2019-06-26T05:35:53.531Z,82.24
2019-06-26T05:38:23.927Z,82.25
2019-06-26T05:40:54.384Z,81.12
2019-06-26T05:43:24.935Z,80.92
2019-06-26T05:45:55.331Z,80.78
2019-06-26T05:48:25.792Z,80.22
2019-06-26T05:50:56.169Z,80.48
2019-06-26T05:53:26.671Z,80.24
2019-06-26T05:55:57.137Z,80.23
2019-06-26T05:58:27.584Z,80.09
2019-06-26T06:00:58.133Z,79.15
2019-06-26T06:03:28.569Z,78.96
2019-06-26T06:05:59.075Z,78.06
2019-06-26T06:08:29.471Z,77.09
2019-06-26T06:10:59.940Z,75.64
2019-06-26T06:13:30.356Z,75.62
2019-06-26T06:16:00.830Z,74.58
2019-06-26T06:18:31.285Z,74.68
2019-06-26T06:21:03.500Z,73.74
2019-06-26T06:23:33.793Z,74.21
2019-06-26T06:26:23.384Z,73.32
2019-06-26T06:28:53.886Z,73.09
2019-06-26T06:31:24.349Z,73.61
2019-06-26T06:33:54.733Z,73.07
2019-06-26T06:36:25.150Z,72.16
2019-06-26T06:38:55.510Z,72.75
2019-06-26T06:41:25.888Z,72.95
2019-06-26T06:43:56.239Z,73.09
2019-06-26T06:46:26.701Z,72.29
2019-06-26T06:48:57.143Z,72.36
2019-06-26T06:51:27.567Z,70.99
2019-06-26T06:53:57.989Z,71.33
2019-06-26T06:56:28.441Z,70.91
2019-06-26T06:58:58.917Z,70.89
2019-06-26T07:01:29.415Z,70.32
2019-06-26T07:03:59.908Z,68.66
2019-06-26T07:06:30.365Z,67.70
2019-06-26T07:09:00.811Z,68.15
2019-06-26T07:11:31.167Z,66.09
2019-06-26T07:14:01.740Z,66.53
2019-06-26T07:16:32.210Z,65.30
2019-06-26T07:19:02.702Z,64.65
2019-06-26T07:21:33.262Z,64.03
2019-06-26T07:24:03.588Z,62.78
2019-06-26T07:26:34.013Z,61.45
2019-06-26T07:29:04.388Z,62.13
2019-06-26T07:31:38.359Z,61.78
2019-06-26T07:34:07.164Z,60.96
2019-06-26T07:36:37.724Z,61.34
2019-06-26T07:39:08.650Z,61.49
2019-06-26T07:41:39.127Z,61.08
2019-06-26T07:44:09.657Z,57.70
2019-06-26T07:46:40.071Z,57.78
2019-06-26T07:49:10.780Z,59.37
2019-06-26T07:51:41.255Z,56.52
2019-06-26T07:54:12.346Z,57.09
2019-06-26T07:56:42.796Z,56.97
2019-06-26T07:59:13.280Z,57.17
2019-06-26T08:01:43.687Z,56.08
2019-06-26T08:04:14.190Z,56.84
2019-06-26T08:06:44.701Z,56.52
2019-06-26T08:09:15.258Z,55.13
2019-06-26T08:11:45.688Z,53.68
2019-06-26T08:14:16.180Z,51.58
2019-06-26T08:16:46.660Z,52.39
2019-06-26T08:19:17.137Z,50.24
2019-06-26T08:21:47.522Z,49.93
2019-06-26T08:24:17.999Z,47.60
2019-06-26T08:26:48.511Z,46.96
2019-06-26T08:29:18.893Z,47.59
2019-06-26T08:31:49.413Z,49.14
2019-06-26T08:34:19.911Z,45.60
2019-06-26T08:36:50.980Z,47.30
2019-06-26T08:39:21.623Z,46.94
2019-06-26T08:41:52.132Z,47.25
2019-06-26T08:44:22.705Z,46.10
2019-06-26T08:46:53.157Z,42.99
2019-06-26T08:49:25.937Z,46.20
2019-06-26T08:51:56.560Z,47.86
2019-06-26T08:54:27.074Z,47.99
2019-06-26T08:57:06.443Z,43.33
2019-06-26T08:59:39.271Z,44.49
2019-06-26T09:02:12.775Z,45.09
2019-06-26T09:04:43.343Z,42.98
2019-06-26T09:07:13.818Z,43.56
2019-06-26T09:09:44.474Z,42.74
2019-06-26T09:12:15.097Z,37.90
2019-06-26T09:14:45.563Z,41.20
2019-06-26T09:17:15.889Z,43.01
2019-06-26T09:19:46.453Z,41.04
2019-06-26T09:22:16.950Z,41.84
2019-06-26T09:24:47.345Z,38.86
2019-06-26T09:27:17.695Z,41.66
2019-06-26T09:29:48.254Z,42.58
2019-06-26T09:32:18.691Z,43.71
2019-06-26T09:34:49.062Z,42.62
2019-06-26T09:37:19.520Z,40.83
2019-06-26T09:39:50.163Z,39.71
2019-06-26T09:42:20.466Z,39.96
2019-06-26T09:44:50.961Z,40.48
2019-06-26T09:47:21.375Z,39.61
2019-06-26T09:49:51.849Z,38.09
2019-06-26T09:52:22.296Z,41.07
2019-06-26T09:54:52.772Z,36.28
2019-06-26T09:57:23.210Z,37.80
2019-06-26T09:59:53.674Z,40.81
2019-06-26T10:02:24.144Z,34.61
2019-06-26T10:04:54.709Z,36.03
2019-06-26T10:07:25.162Z,34.88
2019-06-26T10:09:55.615Z,36.50
2019-06-26T10:12:26.571Z,36.86
2019-06-26T10:14:56.998Z,36.89
2019-06-26T10:17:27.484Z,33.15
2019-06-26T10:19:57.966Z,35.34
2019-06-26T10:22:28.410Z,36.87
2019-06-26T10:24:58.810Z,39.55
2019-06-26T10:27:29.399Z,32.82
2019-06-26T10:29:59.929Z,33.62
2019-06-26T10:32:30.355Z,34.03
2019-06-26T10:35:00.790Z,34.73
2019-06-26T10:37:31.225Z,37.09
2019-06-26T10:40:01.695Z,37.87
2019-06-26T10:42:32.202Z,35.41
2019-06-26T10:45:02.719Z,36.82
2019-06-26T10:47:33.191Z,34.02
2019-06-26T10:50:03.686Z,33.61
2019-06-26T10:52:34.265Z,35.15
2019-06-26T10:55:04.707Z,33.58
2019-06-26T10:57:35.209Z,32.94
2019-06-26T11:00:07.150Z,31.69
2019-06-26T11:02:37.703Z,31.79
2019-06-26T11:05:11.030Z,36.93
2019-06-26T11:07:41.630Z,30.81
2019-06-26T11:10:13.581Z,30.63
2019-06-26T11:12:43.959Z,36.48
2019-06-26T11:15:14.939Z,31.08
2019-06-26T11:17:45.694Z,33.77
2019-06-26T11:20:16.324Z,31.15
2019-06-26T11:22:46.886Z,32.61
2019-06-26T11:25:21.103Z,33.75
2019-06-26T11:27:51.571Z,33.59
2019-06-26T11:30:24.319Z,33.42
2019-06-26T11:32:54.830Z,32.10
2019-06-26T11:35:25.322Z,32.29
2019-06-26T11:37:55.798Z,30.93
2019-06-26T11:40:26.847Z,32.39
2019-06-26T11:42:57.393Z,34.83
2019-06-26T11:45:27.953Z,31.46
2019-06-26T11:47:58.504Z,35.65
2019-06-26T11:50:29.109Z,31.65
2019-06-26T11:52:59.587Z,29.59
2019-06-26T11:55:29.994Z,26.57
2019-06-26T11:58:00.513Z,34.18
2019-06-26T12:00:31.401Z,28.91
2019-06-26T12:03:01.915Z,29.03
2019-06-26T12:05:32.355Z,32.73
2019-06-26T12:08:02.812Z,30.51
2019-06-26T12:10:33.289Z,31.25
2019-06-26T12:13:04.374Z,27.58
2019-06-26T12:15:34.960Z,32.39
2019-06-26T12:18:05.318Z,27.94
2019-06-26T12:20:35.869Z,27.91
2019-06-26T12:23:06.266Z,28.57
2019-06-26T12:25:36.766Z,32.28
2019-06-26T12:28:07.599Z,28.51
2019-06-26T12:30:38.053Z,31.68
2019-06-26T12:33:08.524Z,28.54
2019-06-26T12:35:39.008Z,31.13
2019-06-26T12:38:09.501Z,29.82
2019-06-26T12:40:40.053Z,27.35
2019-06-26T12:43:10.535Z,28.17
2019-06-26T12:45:40.995Z,27.21
2019-06-26T12:48:11.627Z,24.99
2019-06-26T12:50:42.150Z,29.11
2019-06-26T12:53:12.640Z,27.21
2019-06-26T12:55:43.136Z,23.60
2019-06-26T12:58:18.102Z,22.74
2019-06-26T13:00:46.482Z,22.79
2019-06-26T13:03:16.952Z,24.38
2019-06-26T13:05:47.510Z,23.95
2019-06-26T13:08:17.993Z,25.59
2019-06-26T13:10:50.339Z,21.79
2019-06-26T13:13:20.683Z,22.62
2019-06-26T13:15:51.481Z,23.27
2019-06-26T13:18:22.033Z,21.71
2019-06-26T13:20:53.794Z,22.21
2019-06-26T13:23:24.446Z,22.32
2019-06-26T13:25:54.915Z,22.57
2019-06-26T13:28:25.601Z,21.74
2019-06-26T13:30:56.014Z,22.93
2019-06-26T13:33:26.518Z,23.55
2019-06-26T13:35:57.069Z,23.72
2019-06-26T13:38:27.497Z,23.59
2019-06-26T13:40:57.982Z,23.24
2019-06-26T13:43:28.429Z,22.52
2019-06-26T13:45:59.065Z,23.87
2019-06-26T13:48:29.514Z,23.81
2019-06-26T13:51:09.497Z,24.52
2019-06-26T13:53:32.458Z,25.75
2019-06-26T13:56:03.323Z,28.38
2019-06-26T13:58:33.868Z,28.14
2019-06-26T14:01:04.450Z,30.92
2019-06-26T14:03:34.933Z,34.29
2019-06-26T14:06:05.408Z,34.37
2019-06-26T14:08:55.097Z,34.81
2019-06-26T14:11:25.651Z,39.33
2019-06-26T14:13:56.298Z,41.15
2019-06-26T14:16:29.838Z,39.39
2019-06-26T14:18:59.298Z,38.08
2019-06-26T14:21:29.767Z,38.72
2019-06-26T14:24:00.308Z,38.73
2019-06-26T14:26:30.656Z,40.12
2019-06-26T14:29:01.084Z,42.02
2019-06-26T14:31:31.631Z,42.15
2019-06-26T14:34:02.080Z,42.01
2019-06-26T14:36:32.508Z,42.24
2019-06-26T14:39:02.921Z,37.71
2019-06-26T14:41:34.137Z,38.16
2019-06-26T14:44:04.577Z,39.00
2019-06-26T14:46:35.041Z,39.43
2019-06-26T14:49:05.624Z,38.02
2019-06-26T14:51:43.946Z,37.36
2019-06-26T14:54:08.658Z,39.16
2019-06-26T14:56:39.167Z,41.75
2019-06-26T14:59:09.569Z,39.72
2019-06-26T15:01:40.112Z,39.22
2019-06-26T15:04:10.525Z,41.04
2019-06-26T15:06:40.937Z,38.28
2019-06-26T15:09:11.509Z,41.96
2019-06-26T15:11:42.016Z,38.48
2019-06-26T15:14:12.516Z,42.29
2019-06-26T15:16:42.957Z,39.15
2019-06-26T15:19:13.418Z,42.82
2019-06-26T15:21:57.408Z,41.86
2019-06-26T15:24:16.424Z,42.12
2019-06-26T15:26:46.911Z,39.96
2019-06-26T15:29:17.270Z,37.54
2019-06-26T15:31:47.754Z,39.22
2019-06-26T15:34:18.321Z,38.13
2019-06-26T15:36:48.795Z,42.45
2019-06-26T15:39:19.426Z,41.85
2019-06-26T15:41:50.055Z,42.78
2019-06-26T15:44:20.535Z,43.15
2019-06-26T15:46:51.040Z,45.10
2019-06-26T15:49:21.406Z,44.25
2019-06-26T15:51:51.744Z,45.11
2019-06-26T15:54:22.563Z,47.00
2019-06-26T15:56:53.121Z,44.10
2019-06-26T15:59:23.591Z,44.71
2019-06-26T16:01:57.095Z,41.40
2019-06-26T16:04:27.657Z,42.77
2019-06-26T16:07:01.176Z,46.21
2019-06-26T16:09:31.635Z,44.79
2019-06-26T16:12:02.254Z,46.99
2019-06-26T16:14:32.766Z,43.07
2019-06-26T16:17:07.884Z,43.87
2019-06-26T16:19:38.306Z,41.79
2019-06-26T16:22:08.833Z,43.61
2019-06-26T16:24:39.227Z,42.61
2019-06-26T16:27:09.654Z,36.31
2019-06-26T16:29:40.217Z,37.04
2019-06-26T16:32:10.645Z,37.48
2019-06-26T16:34:41.183Z,35.76
2019-06-26T16:37:11.623Z,35.71
2019-06-26T16:39:42.089Z,34.37
2019-06-26T16:42:12.598Z,34.23
2019-06-26T16:44:43.045Z,34.32
2019-06-26T16:47:13.466Z,34.02
2019-06-26T16:49:44.785Z,34.04
2019-06-26T16:52:15.240Z,32.32
2019-06-26T16:54:45.714Z,32.43
2019-06-26T16:57:16.195Z,32.18
2019-06-26T16:59:46.762Z,31.63
2019-06-26T17:02:17.191Z,34.61
2019-06-26T17:04:47.637Z,33.46
2019-06-26T17:07:18.137Z,35.26
2019-06-26T17:09:48.515Z,37.66
2019-06-26T17:12:19.010Z,39.58
2019-06-26T17:14:49.359Z,42.19
2019-06-26T17:17:19.825Z,45.34
2019-06-26T17:19:50.287Z,47.50
2019-06-26T17:22:20.712Z,49.85
2019-06-26T17:24:51.155Z,51.79
2019-06-26T17:27:21.614Z,52.26
2019-06-26T17:29:52.112Z,51.47
2019-06-26T17:32:22.518Z,52.38
2019-06-26T17:34:52.900Z,51.32
2019-06-26T17:37:23.406Z,51.74
2019-06-26T17:39:53.882Z,53.27
2019-06-26T17:42:24.325Z,55.52
2019-06-26T17:44:54.708Z,57.36
2019-06-26T17:47:25.188Z,55.63
2019-06-26T17:49:55.574Z,56.66
2019-06-26T17:52:25.960Z,56.47
2019-06-26T17:54:56.449Z,55.10
2019-06-26T17:57:26.883Z,55.96
2019-06-26T17:59:57.456Z,57.68
2019-06-26T18:02:27.733Z,57.76
2019-06-26T18:04:58.182Z,59.35
2019-06-26T18:07:28.543Z,61.64
2019-06-26T18:09:58.994Z,61.04
2019-06-26T18:12:29.402Z,61.22
2019-06-26T18:15:00.033Z,59.92
2019-06-26T18:17:30.487Z,58.63
2019-06-26T18:20:00.970Z,60.76
2019-06-26T18:22:31.462Z,59.99
2019-06-26T18:25:01.868Z,60.92
2019-06-26T18:27:32.267Z,60.08
2019-06-26T18:30:04.202Z,64.63
2019-06-26T18:32:34.822Z,61.38
2019-06-26T18:35:05.531Z,63.77
2019-06-26T18:37:35.994Z,64.36
2019-06-26T18:40:08.197Z,64.07
2019-06-26T18:42:38.924Z,63.67
2019-06-26T18:45:09.508Z,63.95
2019-06-26T18:47:39.895Z,65.22
2019-06-26T18:50:11.136Z,66.36
2019-06-26T18:52:41.640Z,68.06
2019-06-26T18:55:12.178Z,68.51
2019-06-26T18:57:42.740Z,69.74
2019-06-26T19:00:14.598Z,71.02
2019-06-26T19:02:45.028Z,71.25
2019-06-26T19:05:15.586Z,72.34
2019-06-26T19:07:46.041Z,73.29
2019-06-26T19:10:16.416Z,74.11
2019-06-26T19:12:46.762Z,74.35
2019-06-26T19:15:17.185Z,75.18
2019-06-26T19:17:47.678Z,75.27
2019-06-26T19:20:19.617Z,75.50
2019-06-26T19:22:50.100Z,76.08
2019-06-26T19:25:20.654Z,76.86
2019-06-26T19:27:51.118Z,75.83
2019-06-26T19:30:21.599Z,76.35
2019-06-26T19:32:51.963Z,77.05
2019-06-26T19:35:22.427Z,77.69
2019-06-26T19:37:52.927Z,78.31
2019-06-26T19:40:24.295Z,78.51
2019-06-26T19:42:55.254Z,78.20
2019-06-26T19:45:25.915Z,78.13
2019-06-26T19:47:56.390Z,77.94
2019-06-26T19:50:26.866Z,78.46
2019-06-26T19:52:57.386Z,78.73
2019-06-26T19:55:28.160Z,78.87
2019-06-26T19:57:58.628Z,79.27
2019-06-26T20:00:29.519Z,78.85
2019-06-26T20:03:00.013Z,79.32
2019-06-26T20:05:30.879Z,79.12
2019-06-26T20:08:01.429Z,79.34
2019-06-26T20:10:32.081Z,79.81
2019-06-26T20:13:02.914Z,80.29
2019-06-26T20:15:33.678Z,80.77
2019-06-26T20:18:04.618Z,80.85
2019-06-26T20:20:35.226Z,80.85
2019-06-26T20:23:05.900Z,80.72
2019-06-26T20:25:36.264Z,80.88
2019-06-26T20:28:06.938Z,80.64
2019-06-26T20:30:37.432Z,80.27
2019-06-26T20:33:07.856Z,80.49
2019-06-26T20:35:39.001Z,80.89
2019-06-26T20:38:09.625Z,80.93
2019-06-26T20:40:40.154Z,81.11
2019-06-26T20:43:10.699Z,81.25
2019-06-26T20:45:41.270Z,80.81
2019-06-26T20:48:11.747Z,80.17
2019-06-26T20:50:42.226Z,79.34
2019-06-26T20:53:12.727Z,79.86
2019-06-26T20:55:45.246Z,79.63
2019-06-26T20:58:15.774Z,79.09
2019-06-26T21:00:46.191Z,80.12
2019-06-26T21:03:16.706Z,80.60
2019-06-26T21:05:47.245Z,80.76
2019-06-26T21:08:17.829Z,80.86
2019-06-26T21:10:48.420Z,81.00
2019-06-26T21:13:19.071Z,80.61
2019-06-26T21:15:52.804Z,80.53
2019-06-26T21:18:21.789Z,80.36
2019-06-26T21:20:52.320Z,80.58
2019-06-26T21:23:23.681Z,81.05
2019-06-26T21:25:54.294Z,80.99
2019-06-26T21:28:24.700Z,80.83
2019-06-26T21:30:55.222Z,80.75
2019-06-26T21:33:25.754Z,81.17
2019-06-26T21:35:56.989Z,80.73
2019-06-26T21:38:27.608Z,81.69
2019-06-26T21:40:58.133Z,81.72
2019-06-26T21:43:28.519Z,82.28
2019-06-26T21:45:58.972Z,82.91
2019-06-26T21:48:29.443Z,82.65
2019-06-26T21:50:59.882Z,82.56
2019-06-26T21:53:30.448Z,82.88
2019-06-26T21:56:00.861Z,83.34
2019-06-26T21:58:31.248Z,83.63
2019-06-26T22:01:01.745Z,83.95
2019-06-26T22:03:32.685Z,83.94
2019-06-26T22:06:03.098Z,83.29
2019-06-26T22:08:33.796Z,83.46
2019-06-26T22:11:04.633Z,83.23
2019-06-26T22:13:35.056Z,83.15
2019-06-26T22:16:05.663Z,83.35
2019-06-26T22:18:37.303Z,82.69
2019-06-26T22:21:07.730Z,82.34
2019-06-26T22:23:38.109Z,82.30
2019-06-26T22:26:08.606Z,82.77
2019-06-26T22:28:38.936Z,83.33
2019-06-26T22:31:09.381Z,83.44
2019-06-26T22:33:39.884Z,83.26
2019-06-26T22:36:10.326Z,83.44
2019-06-26T22:38:40.843Z,83.61
2019-06-26T22:41:11.217Z,83.44
2019-06-26T22:43:41.601Z,83.59
2019-06-26T22:46:12.122Z,83.24
2019-06-26T22:48:42.483Z,83.55
2019-06-26T22:51:12.900Z,83.61
2019-06-26T22:53:43.287Z,83.24
2019-06-26T22:56:13.761Z,83.59
2019-06-26T22:58:44.263Z,84.27
2019-06-26T23:01:14.700Z,84.05
2019-06-26T23:03:45.199Z,84.26
2019-06-26T23:06:15.643Z,84.75
2019-06-26T23:08:46.103Z,84.62
2019-06-26T23:11:16.405Z,84.37
2019-06-26T23:13:46.852Z,84.02
2019-06-26T23:16:17.275Z,83.99
2019-06-26T23:18:47.782Z,83.69
2019-06-26T23:21:18.097Z,82.86
2019-06-26T23:23:48.574Z,82.30
2019-06-26T23:26:23.875Z,81.71
2019-06-26T23:28:51.202Z,81.64
2019-06-26T23:31:21.639Z,82.50
2019-06-26T23:33:52.106Z,82.98
2019-06-26T23:36:22.613Z,83.30
2019-06-26T23:38:53.096Z,83.42
2019-06-26T23:41:23.503Z,83.71
2019-06-26T23:43:53.969Z,83.40
2019-06-26T23:46:24.477Z,84.40
2019-06-26T23:48:54.910Z,84.81
2019-06-26T23:51:25.388Z,84.54
2019-06-26T23:53:55.868Z,84.15
2019-06-26T23:56:39.608Z,84.22
2019-06-26T23:58:58.480Z,84.66
